sensor_id;sensor_type;location;lat;lon;timestamp;temperature;humidity
29453;DHT22;16424;50.956;5.320;2023-09-07T00:00:16;18.90;99.90
29453;DHT22;16424;50.956;5.320;2023-09-07T00:02:41;18.80;99.90
29453;DHT22;16424;50.956;5.320;2023-09-07T00:05:07;18.80;99.90
29453;DHT22;16424;50.956;5.320;2023-09-07T00:07:34;18.80;99.90
29453;DHT22;16424;50.956;5.320;2023-09-07T00:10:00;18.70;99.90
29453;DHT22;16424;50.956;5.320;2023-09-07T00:12:26;18.70;99.90
29453;DHT22;16424;50.956;5.320;2023-09-07T00:14:56;18.70;99.90
29453;DHT22;16424;50.956;5.320;2023-09-07T00:17:22;18.70;99.90
29453;DHT22;16424;50.956;5.320;2023-09-07T00:19:48;18.70;99.90
29453;DHT22;16424;50.956;5.320;2023-09-07T00:22:15;18.70;99.90
29453;DHT22;16424;50.956;5.320;2023-09-07T00:24:40;18.80;99.90
29453;DHT22;16424;50.956;5.320;2023-09-07T00:27:06;18.80;99.90
29453;DHT22;16424;50.956;5.320;2023-09-07T00:29:34;18.80;99.90
29453;DHT22;16424;50.956;5.320;2023-09-07T00:32:00;18.90;99.90
29453;DHT22;16424;50.956;5.320;2023-09-07T00:34:26;18.80;99.90
29453;DHT22;16424;50.956;5.320;2023-09-07T00:36:51;18.80;99.90
29453;DHT22;16424;50.956;5.320;2023-09-07T00:39:17;18.70;99.90
29453;DHT22;16424;50.956;5.320;2023-09-07T00:41:43;18.60;99.90
29453;DHT22;16424;50.956;5.320;2023-09-07T00:44:08;18.60;99.90
29453;DHT22;16424;50.956;5.320;2023-09-07T00:46:34;18.40;99.90
29453;DHT22;16424;50.956;5.320;2023-09-07T00:49:00;18.40;99.90
29453;DHT22;16424;50.956;5.320;2023-09-07T00:51:26;18.40;99.90
29453;DHT22;16424;50.956;5.320;2023-09-07T00:53:52;18.30;99.90
29453;DHT22;16424;50.956;5.320;2023-09-07T00:56:18;18.30;99.90
29453;DHT22;16424;50.956;5.320;2023-09-07T00:58:44;18.20;99.90
29453;DHT22;16424;50.956;5.320;2023-09-07T01:01:10;18.20;99.90
29453;DHT22;16424;50.956;5.320;2023-09-07T01:03:36;18.10;99.90
29453;DHT22;16424;50.956;5.320;2023-09-07T01:06:04;18.00;99.90
29453;DHT22;16424;50.956;5.320;2023-09-07T01:08:42;18.00;99.90
29453;DHT22;16424;50.956;5.320;2023-09-07T01:11:16;18.00;99.90
29453;DHT22;16424;50.956;5.320;2023-09-07T01:13:42;18.00;99.90
29453;DHT22;16424;50.956;5.320;2023-09-07T01:16:09;17.90;99.90
29453;DHT22;16424;50.956;5.320;2023-09-07T01:18:37;17.90;99.90
29453;DHT22;16424;50.956;5.320;2023-09-07T01:21:06;17.80;99.90
29453;DHT22;16424;50.956;5.320;2023-09-07T01:23:37;17.80;99.90
29453;DHT22;16424;50.956;5.320;2023-09-07T01:26:05;17.70;99.90
29453;DHT22;16424;50.956;5.320;2023-09-07T01:28:30;17.70;99.90
29453;DHT22;16424;50.956;5.320;2023-09-07T01:30:56;17.70;99.90
29453;DHT22;16424;50.956;5.320;2023-09-07T01:33:23;17.70;99.90
29453;DHT22;16424;50.956;5.320;2023-09-07T01:35:49;17.70;99.90
29453;DHT22;16424;50.956;5.320;2023-09-07T01:38:14;17.60;99.90
29453;DHT22;16424;50.956;5.320;2023-09-07T01:40:40;17.60;99.90
29453;DHT22;16424;50.956;5.320;2023-09-07T01:43:05;17.60;99.90
29453;DHT22;16424;50.956;5.320;2023-09-07T01:45:31;17.60;99.90
29453;DHT22;16424;50.956;5.320;2023-09-07T01:47:58;17.60;99.90
29453;DHT22;16424;50.956;5.320;2023-09-07T01:50:24;17.60;99.90
29453;DHT22;16424;50.956;5.320;2023-09-07T01:52:51;17.60;99.90
29453;DHT22;16424;50.956;5.320;2023-09-07T01:55:17;17.50;99.90
29453;DHT22;16424;50.956;5.320;2023-09-07T01:57:43;17.50;99.90
29453;DHT22;16424;50.956;5.320;2023-09-07T02:00:10;17.50;99.90
29453;DHT22;16424;50.956;5.320;2023-09-07T02:02:36;17.40;99.90
29453;DHT22;16424;50.956;5.320;2023-09-07T02:05:01;17.40;99.90
29453;DHT22;16424;50.956;5.320;2023-09-07T02:07:27;17.40;99.90
29453;DHT22;16424;50.956;5.320;2023-09-07T02:09:53;17.40;99.90
29453;DHT22;16424;50.956;5.320;2023-09-07T02:12:18;17.30;99.90
29453;DHT22;16424;50.956;5.320;2023-09-07T02:14:44;17.30;99.90
29453;DHT22;16424;50.956;5.320;2023-09-07T02:17:10;17.30;99.90
29453;DHT22;16424;50.956;5.320;2023-09-07T02:19:39;17.30;99.90
29453;DHT22;16424;50.956;5.320;2023-09-07T02:22:05;17.20;99.90
29453;DHT22;16424;50.956;5.320;2023-09-07T02:24:30;17.20;99.90
29453;DHT22;16424;50.956;5.320;2023-09-07T02:26:56;17.20;99.90
29453;DHT22;16424;50.956;5.320;2023-09-07T02:29:21;17.20;99.90
29453;DHT22;16424;50.956;5.320;2023-09-07T02:31:47;17.20;99.90
29453;DHT22;16424;50.956;5.320;2023-09-07T02:34:13;17.20;99.90
29453;DHT22;16424;50.956;5.320;2023-09-07T02:36:38;17.10;99.90
29453;DHT22;16424;50.956;5.320;2023-09-07T02:39:04;17.10;99.90
29453;DHT22;16424;50.956;5.320;2023-09-07T02:41:31;17.10;99.90
29453;DHT22;16424;50.956;5.320;2023-09-07T02:43:56;17.10;99.90
29453;DHT22;16424;50.956;5.320;2023-09-07T02:46:22;17.00;99.90
29453;DHT22;16424;50.956;5.320;2023-09-07T02:48:48;17.00;99.90
29453;DHT22;16424;50.956;5.320;2023-09-07T02:51:13;17.00;99.90
29453;DHT22;16424;50.956;5.320;2023-09-07T02:53:39;17.10;99.90
29453;DHT22;16424;50.956;5.320;2023-09-07T02:56:05;17.10;99.90
29453;DHT22;16424;50.956;5.320;2023-09-07T02:58:31;17.10;99.90
29453;DHT22;16424;50.956;5.320;2023-09-07T03:00:56;17.10;99.90
29453;DHT22;16424;50.956;5.320;2023-09-07T03:03:23;17.20;99.90
29453;DHT22;16424;50.956;5.320;2023-09-07T03:05:49;17.30;99.90
29453;DHT22;16424;50.956;5.320;2023-09-07T03:08:14;17.20;99.90
29453;DHT22;16424;50.956;5.320;2023-09-07T03:10:40;17.10;99.90
29453;DHT22;16424;50.956;5.320;2023-09-07T03:13:07;17.10;99.90
29453;DHT22;16424;50.956;5.320;2023-09-07T03:15:33;17.00;99.90
29453;DHT22;16424;50.956;5.320;2023-09-07T03:17:59;17.00;99.90
29453;DHT22;16424;50.956;5.320;2023-09-07T03:20:25;17.00;99.90
29453;DHT22;16424;50.956;5.320;2023-09-07T03:22:51;16.80;99.90
29453;DHT22;16424;50.956;5.320;2023-09-07T03:25:16;16.80;99.90
29453;DHT22;16424;50.956;5.320;2023-09-07T03:27:42;16.70;99.90
29453;DHT22;16424;50.956;5.320;2023-09-07T03:30:08;16.60;99.90
29453;DHT22;16424;50.956;5.320;2023-09-07T03:32:34;16.60;99.90
29453;DHT22;16424;50.956;5.320;2023-09-07T03:35:00;16.60;99.90
29453;DHT22;16424;50.956;5.320;2023-09-07T03:37:29;16.50;99.90
29453;DHT22;16424;50.956;5.320;2023-09-07T03:39:55;16.50;99.90
29453;DHT22;16424;50.956;5.320;2023-09-07T03:42:22;16.50;99.90
29453;DHT22;16424;50.956;5.320;2023-09-07T03:44:48;16.50;99.90
29453;DHT22;16424;50.956;5.320;2023-09-07T03:47:14;16.50;99.90
29453;DHT22;16424;50.956;5.320;2023-09-07T03:49:41;16.50;99.90
29453;DHT22;16424;50.956;5.320;2023-09-07T03:52:07;16.50;99.90
29453;DHT22;16424;50.956;5.320;2023-09-07T03:54:33;16.50;99.90
29453;DHT22;16424;50.956;5.320;2023-09-07T03:56:58;16.60;99.90
29453;DHT22;16424;50.956;5.320;2023-09-07T03:59:24;16.60;99.90
29453;DHT22;16424;50.956;5.320;2023-09-07T04:01:50;16.60;99.90
29453;DHT22;16424;50.956;5.320;2023-09-07T04:04:15;16.60;99.90
29453;DHT22;16424;50.956;5.320;2023-09-07T04:06:41;16.60;99.90
29453;DHT22;16424;50.956;5.320;2023-09-07T04:09:07;16.50;99.90
29453;DHT22;16424;50.956;5.320;2023-09-07T04:11:32;16.50;99.90
29453;DHT22;16424;50.956;5.320;2023-09-07T04:13:58;16.50;99.90
29453;DHT22;16424;50.956;5.320;2023-09-07T04:16:23;16.50;99.90
29453;DHT22;16424;50.956;5.320;2023-09-07T04:18:49;16.50;99.90
29453;DHT22;16424;50.956;5.320;2023-09-07T04:21:15;16.50;99.90
29453;DHT22;16424;50.956;5.320;2023-09-07T04:23:40;16.50;99.90
29453;DHT22;16424;50.956;5.320;2023-09-07T04:26:10;16.40;99.90
29453;DHT22;16424;50.956;5.320;2023-09-07T04:28:37;16.40;99.90
29453;DHT22;16424;50.956;5.320;2023-09-07T04:31:04;16.30;99.90
29453;DHT22;16424;50.956;5.320;2023-09-07T04:33:34;16.20;99.90
29453;DHT22;16424;50.956;5.320;2023-09-07T04:36:13;16.20;99.90
29453;DHT22;16424;50.956;5.320;2023-09-07T04:38:40;16.20;99.90
29453;DHT22;16424;50.956;5.320;2023-09-07T04:41:10;16.10;99.90
29453;DHT22;16424;50.956;5.320;2023-09-07T04:43:37;16.10;99.90
29453;DHT22;16424;50.956;5.320;2023-09-07T04:46:03;16.10;99.90
29453;DHT22;16424;50.956;5.320;2023-09-07T04:48:29;16.10;99.90
29453;DHT22;16424;50.956;5.320;2023-09-07T04:51:02;16.10;99.90
29453;DHT22;16424;50.956;5.320;2023-09-07T04:53:33;16.10;99.90
29453;DHT22;16424;50.956;5.320;2023-09-07T04:56:01;16.10;99.90
29453;DHT22;16424;50.956;5.320;2023-09-07T04:58:26;16.10;99.90
29453;DHT22;16424;50.956;5.320;2023-09-07T05:00:52;16.10;99.90
29453;DHT22;16424;50.956;5.320;2023-09-07T05:03:18;16.10;99.90
29453;DHT22;16424;50.956;5.320;2023-09-07T05:05:44;16.10;99.90
29453;DHT22;16424;50.956;5.320;2023-09-07T05:08:10;16.10;99.90
29453;DHT22;16424;50.956;5.320;2023-09-07T05:10:36;16.10;99.90
29453;DHT22;16424;50.956;5.320;2023-09-07T05:13:02;16.10;99.90
29453;DHT22;16424;50.956;5.320;2023-09-07T05:15:28;16.10;99.90
29453;DHT22;16424;50.956;5.320;2023-09-07T05:17:54;16.00;99.90
29453;DHT22;16424;50.956;5.320;2023-09-07T05:20:22;16.00;99.90
29453;DHT22;16424;50.956;5.320;2023-09-07T05:22:47;16.00;99.90
29453;DHT22;16424;50.956;5.320;2023-09-07T05:25:13;16.00;99.90
29453;DHT22;16424;50.956;5.320;2023-09-07T05:27:39;16.00;99.90
29453;DHT22;16424;50.956;5.320;2023-09-07T05:30:06;16.00;99.90
29453;DHT22;16424;50.956;5.320;2023-09-07T05:32:32;16.00;99.90
29453;DHT22;16424;50.956;5.320;2023-09-07T05:34:58;16.10;99.90
29453;DHT22;16424;50.956;5.320;2023-09-07T05:37:23;16.10;99.90
29453;DHT22;16424;50.956;5.320;2023-09-07T05:39:49;16.20;99.90
29453;DHT22;16424;50.956;5.320;2023-09-07T05:42:15;16.20;99.90
29453;DHT22;16424;50.956;5.320;2023-09-07T05:44:41;16.20;99.90
29453;DHT22;16424;50.956;5.320;2023-09-07T05:47:07;16.20;99.90
29453;DHT22;16424;50.956;5.320;2023-09-07T05:49:32;16.20;99.90
29453;DHT22;16424;50.956;5.320;2023-09-07T05:51:58;16.30;99.90
29453;DHT22;16424;50.956;5.320;2023-09-07T05:54:24;16.50;99.90
29453;DHT22;16424;50.956;5.320;2023-09-07T05:56:49;17.10;99.90
29453;DHT22;16424;50.956;5.320;2023-09-07T05:59:15;17.80;99.90
29453;DHT22;16424;50.956;5.320;2023-09-07T06:01:41;18.80;99.90
29453;DHT22;16424;50.956;5.320;2023-09-07T06:04:07;19.90;99.90
29453;DHT22;16424;50.956;5.320;2023-09-07T06:06:33;20.90;99.90
29453;DHT22;16424;50.956;5.320;2023-09-07T06:08:59;21.80;99.90
29453;DHT22;16424;50.956;5.320;2023-09-07T06:11:25;22.60;99.90
29453;DHT22;16424;50.956;5.320;2023-09-07T06:13:51;23.30;99.90
29453;DHT22;16424;50.956;5.320;2023-09-07T06:16:17;24.00;99.90
29453;DHT22;16424;50.956;5.320;2023-09-07T06:18:43;24.70;99.90
29453;DHT22;16424;50.956;5.320;2023-09-07T06:21:09;25.20;99.90
29453;DHT22;16424;50.956;5.320;2023-09-07T06:23:34;26.00;99.90
29453;DHT22;16424;50.956;5.320;2023-09-07T06:26:00;26.60;99.90
29453;DHT22;16424;50.956;5.320;2023-09-07T06:28:27;27.20;99.90
29453;DHT22;16424;50.956;5.320;2023-09-07T06:30:52;27.70;99.90
29453;DHT22;16424;50.956;5.320;2023-09-07T06:33:18;28.00;99.90
29453;DHT22;16424;50.956;5.320;2023-09-07T06:35:44;28.10;99.90
29453;DHT22;16424;50.956;5.320;2023-09-07T06:38:09;28.00;99.90
29453;DHT22;16424;50.956;5.320;2023-09-07T06:40:35;28.10;99.90
29453;DHT22;16424;50.956;5.320;2023-09-07T06:43:01;28.10;99.90
29453;DHT22;16424;50.956;5.320;2023-09-07T06:45:36;28.20;99.90
29453;DHT22;16424;50.956;5.320;2023-09-07T06:48:03;28.60;99.90
29453;DHT22;16424;50.956;5.320;2023-09-07T06:50:30;29.30;99.90
29453;DHT22;16424;50.956;5.320;2023-09-07T06:52:55;29.90;99.90
29453;DHT22;16424;50.956;5.320;2023-09-07T06:55:21;30.60;99.90
29453;DHT22;16424;50.956;5.320;2023-09-07T06:57:47;31.10;99.90
29453;DHT22;16424;50.956;5.320;2023-09-07T07:00:13;31.60;99.90
29453;DHT22;16424;50.956;5.320;2023-09-07T07:02:38;31.90;99.90
29453;DHT22;16424;50.956;5.320;2023-09-07T07:05:05;32.30;99.90
29453;DHT22;16424;50.956;5.320;2023-09-07T07:07:31;31.60;99.90
29453;DHT22;16424;50.956;5.320;2023-09-07T07:09:56;31.70;99.90
29453;DHT22;16424;50.956;5.320;2023-09-07T07:12:22;31.80;99.90
29453;DHT22;16424;50.956;5.320;2023-09-07T07:14:48;32.10;99.90
29453;DHT22;16424;50.956;5.320;2023-09-07T07:17:13;32.60;99.90
29453;DHT22;16424;50.956;5.320;2023-09-07T07:19:39;32.60;99.90
29453;DHT22;16424;50.956;5.320;2023-09-07T07:22:05;32.20;99.90
29453;DHT22;16424;50.956;5.320;2023-09-07T07:24:31;32.70;99.90
29453;DHT22;16424;50.956;5.320;2023-09-07T07:26:56;32.60;99.90
29453;DHT22;16424;50.956;5.320;2023-09-07T07:29:22;33.20;99.90
29453;DHT22;16424;50.956;5.320;2023-09-07T07:31:48;32.90;99.90
29453;DHT22;16424;50.956;5.320;2023-09-07T07:34:14;33.10;99.70
29453;DHT22;16424;50.956;5.320;2023-09-07T07:36:39;33.40;99.70
29453;DHT22;16424;50.956;5.320;2023-09-07T07:39:05;32.70;99.90
29453;DHT22;16424;50.956;5.320;2023-09-07T07:41:32;32.10;99.90
29453;DHT22;16424;50.956;5.320;2023-09-07T07:43:58;31.80;99.90
29453;DHT22;16424;50.956;5.320;2023-09-07T07:46:24;31.80;99.90
29453;DHT22;16424;50.956;5.320;2023-09-07T07:48:49;31.50;99.90
29453;DHT22;16424;50.956;5.320;2023-09-07T07:51:15;30.50;99.90
29453;DHT22;16424;50.956;5.320;2023-09-07T07:53:41;31.40;99.90
29453;DHT22;16424;50.956;5.320;2023-09-07T07:56:17;31.20;99.90
29453;DHT22;16424;50.956;5.320;2023-09-07T07:58:43;31.30;99.90
29453;DHT22;16424;50.956;5.320;2023-09-07T08:01:17;32.10;99.90
29453;DHT22;16424;50.956;5.320;2023-09-07T08:03:43;32.10;99.90
29453;DHT22;16424;50.956;5.320;2023-09-07T08:06:10;32.00;99.90
29453;DHT22;16424;50.956;5.320;2023-09-07T08:08:37;31.90;99.90
29453;DHT22;16424;50.956;5.320;2023-09-07T08:11:03;32.80;99.90
29453;DHT22;16424;50.956;5.320;2023-09-07T08:13:34;33.10;99.90
29453;DHT22;16424;50.956;5.320;2023-09-07T08:16:03;33.20;99.80
29453;DHT22;16424;50.956;5.320;2023-09-07T08:18:30;33.10;99.90
29453;DHT22;16424;50.956;5.320;2023-09-07T08:20:57;33.10;99.90
29453;DHT22;16424;50.956;5.320;2023-09-07T08:23:23;32.40;99.90
29453;DHT22;16424;50.956;5.320;2023-09-07T08:25:51;32.20;99.90
29453;DHT22;16424;50.956;5.320;2023-09-07T08:28:17;31.80;99.90
29453;DHT22;16424;50.956;5.320;2023-09-07T08:30:47;32.20;99.90
29453;DHT22;16424;50.956;5.320;2023-09-07T08:33:13;32.60;99.90
29453;DHT22;16424;50.956;5.320;2023-09-07T08:35:39;32.30;99.90
29453;DHT22;16424;50.956;5.320;2023-09-07T08:38:10;32.90;99.90
29453;DHT22;16424;50.956;5.320;2023-09-07T08:40:37;33.70;99.90
29453;DHT22;16424;50.956;5.320;2023-09-07T08:43:08;33.50;99.90
29453;DHT22;16424;50.956;5.320;2023-09-07T08:45:41;33.20;99.90
29453;DHT22;16424;50.956;5.320;2023-09-07T08:48:09;32.60;99.90
29453;DHT22;16424;50.956;5.320;2023-09-07T08:50:36;32.50;99.90
29453;DHT22;16424;50.956;5.320;2023-09-07T08:53:03;32.60;99.90
29453;DHT22;16424;50.956;5.320;2023-09-07T08:55:30;32.00;99.90
29453;DHT22;16424;50.956;5.320;2023-09-07T08:57:56;32.00;99.90
29453;DHT22;16424;50.956;5.320;2023-09-07T09:00:22;32.50;99.90
29453;DHT22;16424;50.956;5.320;2023-09-07T09:02:49;33.20;99.90
29453;DHT22;16424;50.956;5.320;2023-09-07T09:05:15;33.20;99.90
29453;DHT22;16424;50.956;5.320;2023-09-07T09:07:43;32.80;99.40
29453;DHT22;16424;50.956;5.320;2023-09-07T09:10:10;32.30;99.90
29453;DHT22;16424;50.956;5.320;2023-09-07T09:12:35;32.20;99.90
29453;DHT22;16424;50.956;5.320;2023-09-07T09:15:09;32.90;99.80
29453;DHT22;16424;50.956;5.320;2023-09-07T09:17:35;32.50;99.90
29453;DHT22;16424;50.956;5.320;2023-09-07T09:20:01;33.10;99.30
29453;DHT22;16424;50.956;5.320;2023-09-07T09:22:26;32.60;99.80
29453;DHT22;16424;50.956;5.320;2023-09-07T09:24:52;32.40;99.70
29453;DHT22;16424;50.956;5.320;2023-09-07T09:27:17;32.40;99.20
29453;DHT22;16424;50.956;5.320;2023-09-07T09:29:43;32.90;99.10
29453;DHT22;16424;50.956;5.320;2023-09-07T09:32:13;32.90;98.80
29453;DHT22;16424;50.956;5.320;2023-09-07T09:34:39;33.40;97.60
29453;DHT22;16424;50.956;5.320;2023-09-07T09:37:13;33.20;97.80
29453;DHT22;16424;50.956;5.320;2023-09-07T09:39:40;33.70;97.60
29453;DHT22;16424;50.956;5.320;2023-09-07T09:42:06;33.70;97.50
29453;DHT22;16424;50.956;5.320;2023-09-07T09:44:32;33.20;97.80
29453;DHT22;16424;50.956;5.320;2023-09-07T09:46:59;33.00;98.00
29453;DHT22;16424;50.956;5.320;2023-09-07T09:49:25;33.00;97.50
29453;DHT22;16424;50.956;5.320;2023-09-07T09:51:51;33.00;97.70
29453;DHT22;16424;50.956;5.320;2023-09-07T09:54:18;32.70;97.40
29453;DHT22;16424;50.956;5.320;2023-09-07T09:56:44;32.90;96.90
29453;DHT22;16424;50.956;5.320;2023-09-07T09:59:11;32.10;97.80
29453;DHT22;16424;50.956;5.320;2023-09-07T10:01:55;32.00;97.80
29453;DHT22;16424;50.956;5.320;2023-09-07T10:04:22;32.10;98.20
29453;DHT22;16424;50.956;5.320;2023-09-07T10:07:01;32.20;97.80
29453;DHT22;16424;50.956;5.320;2023-09-07T10:09:32;32.00;98.40
29453;DHT22;16424;50.956;5.320;2023-09-07T10:11:58;31.90;97.70
29453;DHT22;16424;50.956;5.320;2023-09-07T10:14:25;31.70;97.60
29453;DHT22;16424;50.956;5.320;2023-09-07T10:16:52;31.20;98.30
29453;DHT22;16424;50.956;5.320;2023-09-07T10:19:24;31.00;97.40
29453;DHT22;16424;50.956;5.320;2023-09-07T10:21:52;30.80;98.40
29453;DHT22;16424;50.956;5.320;2023-09-07T10:27:04;29.70;99.10
29453;DHT22;16424;50.956;5.320;2023-09-07T10:29:41;29.80;99.60
29453;DHT22;16424;50.956;5.320;2023-09-07T10:32:08;29.50;99.90
29453;DHT22;16424;50.956;5.320;2023-09-07T10:34:36;29.60;99.70
29453;DHT22;16424;50.956;5.320;2023-09-07T10:37:04;29.80;99.50
29453;DHT22;16424;50.956;5.320;2023-09-07T10:39:32;29.80;99.00
29453;DHT22;16424;50.956;5.320;2023-09-07T10:41:58;29.60;99.10
29453;DHT22;16424;50.956;5.320;2023-09-07T10:44:27;29.70;98.40
29453;DHT22;16424;50.956;5.320;2023-09-07T10:46:54;29.80;98.70
29453;DHT22;16424;50.956;5.320;2023-09-07T10:49:20;29.80;98.60
29453;DHT22;16424;50.956;5.320;2023-09-07T10:51:46;29.60;98.30
29453;DHT22;16424;50.956;5.320;2023-09-07T10:54:16;29.60;98.50
29453;DHT22;16424;50.956;5.320;2023-09-07T10:56:46;29.60;98.50
29453;DHT22;16424;50.956;5.320;2023-09-07T10:59:14;29.80;98.90
29453;DHT22;16424;50.956;5.320;2023-09-07T11:01:41;30.00;98.40
29453;DHT22;16424;50.956;5.320;2023-09-07T11:04:06;30.00;99.00
29453;DHT22;16424;50.956;5.320;2023-09-07T11:06:34;30.00;97.70
29453;DHT22;16424;50.956;5.320;2023-09-07T11:09:01;30.00;98.30
29453;DHT22;16424;50.956;5.320;2023-09-07T11:11:34;30.10;98.50
29453;DHT22;16424;50.956;5.320;2023-09-07T11:14:01;30.20;98.50
29453;DHT22;16424;50.956;5.320;2023-09-07T11:16:26;30.10;97.80
29453;DHT22;16424;50.956;5.320;2023-09-07T11:18:52;30.00;98.20
29453;DHT22;16424;50.956;5.320;2023-09-07T11:21:20;29.90;98.10
29453;DHT22;16424;50.956;5.320;2023-09-07T11:23:46;29.60;98.10
29453;DHT22;16424;50.956;5.320;2023-09-07T11:26:12;29.80;98.70
29453;DHT22;16424;50.956;5.320;2023-09-07T11:28:38;29.90;98.60
29453;DHT22;16424;50.956;5.320;2023-09-07T11:31:04;30.30;98.90
29453;DHT22;16424;50.956;5.320;2023-09-07T11:33:33;30.20;99.00
29453;DHT22;16424;50.956;5.320;2023-09-07T11:35:59;30.20;99.50
29453;DHT22;16424;50.956;5.320;2023-09-07T11:38:30;30.40;99.30
29453;DHT22;16424;50.956;5.320;2023-09-07T11:41:00;30.50;98.70
29453;DHT22;16424;50.956;5.320;2023-09-07T11:43:25;30.60;99.20
29453;DHT22;16424;50.956;5.320;2023-09-07T11:45:51;30.70;98.40
29453;DHT22;16424;50.956;5.320;2023-09-07T11:48:17;30.80;98.40
29453;DHT22;16424;50.956;5.320;2023-09-07T11:50:43;30.60;98.30
29453;DHT22;16424;50.956;5.320;2023-09-07T11:53:09;30.30;99.10
29453;DHT22;16424;50.956;5.320;2023-09-07T11:55:35;30.40;99.20
29453;DHT22;16424;50.956;5.320;2023-09-07T11:58:04;30.40;99.70
29453;DHT22;16424;50.956;5.320;2023-09-07T12:00:30;30.20;99.50
29453;DHT22;16424;50.956;5.320;2023-09-07T12:02:57;30.20;99.90
29453;DHT22;16424;50.956;5.320;2023-09-07T12:05:23;30.40;99.90
29453;DHT22;16424;50.956;5.320;2023-09-07T12:07:48;30.50;98.80
29453;DHT22;16424;50.956;5.320;2023-09-07T12:10:14;30.40;99.30
29453;DHT22;16424;50.956;5.320;2023-09-07T12:12:40;30.50;99.90
29453;DHT22;16424;50.956;5.320;2023-09-07T12:15:07;30.70;99.50
29453;DHT22;16424;50.956;5.320;2023-09-07T12:17:33;31.00;99.90
29453;DHT22;16424;50.956;5.320;2023-09-07T12:19:59;31.10;99.30
29453;DHT22;16424;50.956;5.320;2023-09-07T12:22:29;31.30;99.30
29453;DHT22;16424;50.956;5.320;2023-09-07T12:24:56;31.30;99.00
29453;DHT22;16424;50.956;5.320;2023-09-07T12:27:21;31.30;99.20
29453;DHT22;16424;50.956;5.320;2023-09-07T12:29:47;31.40;98.90
29453;DHT22;16424;50.956;5.320;2023-09-07T12:32:14;31.40;99.60
29453;DHT22;16424;50.956;5.320;2023-09-07T12:34:40;31.40;99.00
29453;DHT22;16424;50.956;5.320;2023-09-07T12:37:06;31.50;99.40
29453;DHT22;16424;50.956;5.320;2023-09-07T12:39:34;31.50;99.80
29453;DHT22;16424;50.956;5.320;2023-09-07T12:42:00;31.80;99.80
29453;DHT22;16424;50.956;5.320;2023-09-07T12:44:27;31.60;99.90
29453;DHT22;16424;50.956;5.320;2023-09-07T12:46:52;31.80;99.90
29453;DHT22;16424;50.956;5.320;2023-09-07T12:49:18;31.90;99.90
29453;DHT22;16424;50.956;5.320;2023-09-07T12:51:45;31.90;99.90
29453;DHT22;16424;50.956;5.320;2023-09-07T12:54:12;31.50;99.90
29453;DHT22;16424;50.956;5.320;2023-09-07T12:56:38;31.50;99.90
29453;DHT22;16424;50.956;5.320;2023-09-07T12:59:03;31.50;99.90
29453;DHT22;16424;50.956;5.320;2023-09-07T13:01:29;31.60;99.90
29453;DHT22;16424;50.956;5.320;2023-09-07T13:03:56;31.50;99.90
29453;DHT22;16424;50.956;5.320;2023-09-07T13:06:22;31.50;99.90
29453;DHT22;16424;50.956;5.320;2023-09-07T13:08:48;31.60;99.90
29453;DHT22;16424;50.956;5.320;2023-09-07T13:11:13;31.60;99.90
29453;DHT22;16424;50.956;5.320;2023-09-07T13:13:39;31.50;99.90
29453;DHT22;16424;50.956;5.320;2023-09-07T13:16:05;31.50;99.90
29453;DHT22;16424;50.956;5.320;2023-09-07T13:18:31;31.50;99.90
29453;DHT22;16424;50.956;5.320;2023-09-07T13:20:59;31.30;99.90
29453;DHT22;16424;50.956;5.320;2023-09-07T13:23:29;31.50;99.90
29453;DHT22;16424;50.956;5.320;2023-09-07T13:25:55;31.70;99.90
29453;DHT22;16424;50.956;5.320;2023-09-07T13:28:22;31.70;99.90
29453;DHT22;16424;50.956;5.320;2023-09-07T13:30:47;31.80;99.90
29453;DHT22;16424;50.956;5.320;2023-09-07T13:33:13;31.80;99.90
29453;DHT22;16424;50.956;5.320;2023-09-07T13:35:39;31.90;99.90
29453;DHT22;16424;50.956;5.320;2023-09-07T13:38:05;31.80;99.90
29453;DHT22;16424;50.956;5.320;2023-09-07T13:40:31;31.90;99.90
29453;DHT22;16424;50.956;5.320;2023-09-07T13:42:57;31.60;99.90
29453;DHT22;16424;50.956;5.320;2023-09-07T13:45:23;31.70;99.90
29453;DHT22;16424;50.956;5.320;2023-09-07T13:47:49;31.90;99.90
29453;DHT22;16424;50.956;5.320;2023-09-07T13:50:14;31.90;99.90
29453;DHT22;16424;50.956;5.320;2023-09-07T13:52:40;32.10;99.90
29453;DHT22;16424;50.956;5.320;2023-09-07T13:55:06;32.00;99.90
29453;DHT22;16424;50.956;5.320;2023-09-07T13:57:33;32.10;99.90
29453;DHT22;16424;50.956;5.320;2023-09-07T13:59:59;32.20;99.90
29453;DHT22;16424;50.956;5.320;2023-09-07T14:02:24;32.50;99.90
29453;DHT22;16424;50.956;5.320;2023-09-07T14:04:51;32.40;99.90
29453;DHT22;16424;50.956;5.320;2023-09-07T14:07:17;32.40;99.90
29453;DHT22;16424;50.956;5.320;2023-09-07T14:09:43;32.30;99.90
29453;DHT22;16424;50.956;5.320;2023-09-07T14:12:09;32.20;99.90
29453;DHT22;16424;50.956;5.320;2023-09-07T14:14:35;32.40;99.90
29453;DHT22;16424;50.956;5.320;2023-09-07T14:17:02;32.40;99.90
29453;DHT22;16424;50.956;5.320;2023-09-07T14:19:27;32.30;99.90
29453;DHT22;16424;50.956;5.320;2023-09-07T14:21:59;32.30;99.90
29453;DHT22;16424;50.956;5.320;2023-09-07T14:24:25;32.10;99.90
29453;DHT22;16424;50.956;5.320;2023-09-07T14:26:51;32.20;99.90
29453;DHT22;16424;50.956;5.320;2023-09-07T14:29:17;32.20;99.90
29453;DHT22;16424;50.956;5.320;2023-09-07T14:31:43;32.20;99.90
29453;DHT22;16424;50.956;5.320;2023-09-07T14:34:10;32.20;99.90
29453;DHT22;16424;50.956;5.320;2023-09-07T14:36:36;32.50;99.90
29453;DHT22;16424;50.956;5.320;2023-09-07T14:39:05;32.50;99.90
29453;DHT22;16424;50.956;5.320;2023-09-07T14:41:32;32.40;99.90
29453;DHT22;16424;50.956;5.320;2023-09-07T14:43:59;32.30;99.90
29453;DHT22;16424;50.956;5.320;2023-09-07T14:46:25;32.10;99.90
29453;DHT22;16424;50.956;5.320;2023-09-07T14:48:51;32.20;99.90
29453;DHT22;16424;50.956;5.320;2023-09-07T14:51:17;32.20;99.90
29453;DHT22;16424;50.956;5.320;2023-09-07T14:53:43;32.10;99.90
29453;DHT22;16424;50.956;5.320;2023-09-07T14:56:09;32.00;99.90
29453;DHT22;16424;50.956;5.320;2023-09-07T14:58:35;32.10;99.90
29453;DHT22;16424;50.956;5.320;2023-09-07T15:01:01;32.00;99.90
29453;DHT22;16424;50.956;5.320;2023-09-07T15:03:26;32.00;99.90
29453;DHT22;16424;50.956;5.320;2023-09-07T15:05:52;32.10;99.90
29453;DHT22;16424;50.956;5.320;2023-09-07T15:08:19;32.10;99.90
29453;DHT22;16424;50.956;5.320;2023-09-07T15:10:45;32.20;99.90
29453;DHT22;16424;50.956;5.320;2023-09-07T15:13:11;32.10;99.90
29453;DHT22;16424;50.956;5.320;2023-09-07T15:15:37;32.20;99.90
29453;DHT22;16424;50.956;5.320;2023-09-07T15:18:05;32.40;99.90
29453;DHT22;16424;50.956;5.320;2023-09-07T15:20:32;32.40;99.90
29453;DHT22;16424;50.956;5.320;2023-09-07T15:22:57;32.40;99.90
29453;DHT22;16424;50.956;5.320;2023-09-07T15:25:23;32.50;99.90
29453;DHT22;16424;50.956;5.320;2023-09-07T15:27:49;32.40;99.90